createdAt,value
2023-03-01T00:01:04.917Z,101543.22
2023-03-01T00:03:32.834Z,101542.06
2023-03-01T00:05:59.654Z,101539.41
2023-03-01T00:08:27.205Z,101541.56
2023-03-01T00:11:05.660Z,101534.41
2023-03-01T00:13:32.446Z,101531.28
2023-03-01T00:15:59.453Z,101534.75
2023-03-01T00:18:26.155Z,101532.13
2023-03-01T00:20:54.242Z,101536.22
2023-03-01T00:23:21.573Z,101542.25
2023-03-01T00:25:48.453Z,101539.59
2023-03-01T00:28:15.087Z,101546.19
2023-03-01T00:30:42.253Z,101542.38
2023-03-01T00:33:09.101Z,101533.75
2023-03-01T00:35:36.553Z,101541.69
2023-03-01T00:38:04.909Z,101544.00
2023-03-01T00:40:34.298Z,101544.53
2023-03-01T00:43:01.904Z,101542.50
2023-03-01T00:45:29.001Z,101545.81
2023-03-01T00:47:55.771Z,101553.41
2023-03-01T00:50:22.577Z,101550.78
2023-03-01T00:52:53.924Z,101551.72
2023-03-01T00:55:20.662Z,101548.78
2023-03-01T00:57:47.286Z,101548.09
2023-03-01T01:00:14.993Z,101544.31
2023-03-01T01:02:41.868Z,101538.19
2023-03-01T01:05:08.906Z,101535.34
2023-03-01T01:07:35.725Z,101523.53
2023-03-01T01:10:02.404Z,101523.84
2023-03-01T01:12:29.440Z,101526.63
2023-03-01T01:14:56.762Z,101517.56
2023-03-01T01:17:23.385Z,101525.53
2023-03-01T01:19:50.257Z,101515.91
2023-03-01T01:22:17.009Z,101510.28
2023-03-01T01:24:44.131Z,101509.06
2023-03-01T01:27:10.750Z,101512.59
2023-03-01T01:29:37.677Z,101514.59
2023-03-01T01:32:04.584Z,101514.09
2023-03-01T01:34:31.322Z,101501.47
2023-03-01T01:36:58.150Z,101502.22
2023-03-01T01:39:24.807Z,101494.66
2023-03-01T01:41:51.468Z,101487.69
2023-03-01T01:44:29.417Z,101473.97
2023-03-01T01:47:07.542Z,101469.28
2023-03-01T01:49:43.616Z,101475.44
2023-03-01T01:52:15.107Z,101470.69
2023-03-01T01:54:47.198Z,101466.34
2023-03-01T01:57:20.826Z,101475.16
2023-03-01T01:59:55.397Z,101463.25
2023-03-01T02:02:23.496Z,101457.22
2023-03-01T02:04:56.610Z,101465.53
2023-03-01T02:07:24.760Z,101458.22
2023-03-01T02:09:53.461Z,101454.41
2023-03-01T02:12:23.800Z,101460.69
2023-03-01T02:14:50.626Z,101444.09
2023-03-01T02:17:19.384Z,101452.06
2023-03-01T02:20:00.411Z,101437.47
2023-03-01T02:22:31.070Z,101447.22
2023-03-01T02:25:19.138Z,101451.34
2023-03-01T02:28:08.929Z,101434.63
2023-03-01T02:30:35.690Z,101440.22
2023-03-01T02:33:04.804Z,101434.16
2023-03-01T02:35:36.225Z,101444.56
2023-03-01T02:38:04.623Z,101438.06
2023-03-01T02:40:32.329Z,101431.81
2023-03-01T02:42:59.815Z,101432.66
2023-03-01T02:45:28.354Z,101426.69
2023-03-01T02:47:56.398Z,101428.81
2023-03-01T02:50:26.350Z,101425.63
2023-03-01T02:53:10.226Z,101423.97
2023-03-01T02:55:37.199Z,101411.53
2023-03-01T02:58:04.293Z,101407.75
2023-03-01T03:00:40.891Z,101401.03
2023-03-01T03:03:08.551Z,101405.25
2023-03-01T03:05:35.958Z,101395.81
2023-03-01T03:08:04.385Z,101394.19
2023-03-01T03:10:38.475Z,101392.31
2023-03-01T03:13:08.481Z,101389.50
2023-03-01T03:15:36.929Z,101384.03
2023-03-01T03:18:06.634Z,101384.19
2023-03-01T03:20:33.897Z,101386.97
2023-03-01T03:23:00.574Z,101396.25
2023-03-01T03:25:29.701Z,101387.78
2023-03-01T03:27:58.030Z,101378.81
2023-03-01T03:30:28.713Z,101378.31
2023-03-01T03:32:56.852Z,101375.00
2023-03-01T03:35:31.790Z,101375.44
2023-03-01T03:38:03.545Z,101383.41
2023-03-01T03:40:36.070Z,101369.78
2023-03-01T03:43:05.255Z,101373.91
2023-03-01T03:45:34.524Z,101375.06
2023-03-01T03:48:01.981Z,101375.13
2023-03-01T03:50:28.629Z,101370.09
2023-03-01T03:52:55.469Z,101379.31
2023-03-01T03:55:22.210Z,101369.59
2023-03-01T03:57:55.231Z,101372.09
2023-03-01T04:00:24.742Z,101366.47
2023-03-01T04:02:52.119Z,101356.53
2023-03-01T04:05:19.639Z,101363.47
2023-03-01T04:07:46.916Z,101357.78
2023-03-01T04:10:17.288Z,101350.44
2023-03-01T04:12:44.682Z,101355.78
2023-03-01T04:15:15.912Z,101353.38
2023-03-01T04:17:47.751Z,101361.81
2023-03-01T04:20:25.677Z,101352.44
2023-03-01T04:23:16.487Z,101357.44
2023-03-01T04:25:50.330Z,101357.56
2023-03-01T04:28:17.551Z,101368.81
2023-03-01T04:30:44.303Z,101369.50
2023-03-01T04:33:12.398Z,101356.44
2023-03-01T04:35:39.950Z,101355.38
2023-03-01T04:38:07.583Z,101361.72
2023-03-01T04:40:34.348Z,101358.22
2023-03-01T04:43:01.276Z,101360.38
2023-03-01T04:45:28.715Z,101367.88
2023-03-01T04:47:55.417Z,101365.56
2023-03-01T04:50:22.612Z,101368.06
2023-03-01T04:52:49.203Z,101363.09
2023-03-01T04:55:16.436Z,101363.91
2023-03-01T04:57:43.116Z,101368.06
2023-03-01T05:00:22.755Z,101365.06
2023-03-01T05:02:58.758Z,101364.72
2023-03-01T05:05:29.443Z,101359.25
2023-03-01T05:08:02.127Z,101350.16
2023-03-01T05:10:31.720Z,101349.66
2023-03-01T05:12:59.709Z,101350.97
2023-03-01T05:15:31.990Z,101353.47
2023-03-01T05:18:00.705Z,101352.84
2023-03-01T05:20:29.461Z,101351.81
2023-03-01T05:22:59.522Z,101347.19
2023-03-01T05:25:27.385Z,101350.66
2023-03-01T05:27:54.112Z,101354.78
2023-03-01T05:30:21.772Z,101356.91
2023-03-01T05:32:50.906Z,101354.63
2023-03-01T05:35:18.992Z,101356.75
2023-03-01T05:37:48.396Z,101350.47
2023-03-01T05:40:20.970Z,101355.63
2023-03-01T05:42:54.710Z,101356.13
2023-03-01T05:45:23.028Z,101350.34
2023-03-01T05:47:50.415Z,101356.31
2023-03-01T05:50:26.167Z,101357.66
2023-03-01T05:53:14.444Z,101345.38
2023-03-01T05:55:42.349Z,101357.28
2023-03-01T05:58:14.912Z,101353.19
2023-03-01T06:00:42.371Z,101350.22
2023-03-01T06:03:11.765Z,101347.38
2023-03-01T06:05:40.366Z,101351.84
2023-03-01T06:08:09.773Z,101347.06
2023-03-01T06:10:36.497Z,101347.25
2023-03-01T06:13:03.819Z,101355.34
2023-03-01T06:15:30.464Z,101351.06
2023-03-01T06:17:59.655Z,101353.00
2023-03-01T06:20:28.462Z,101357.44
2023-03-01T06:22:55.460Z,101357.50
2023-03-01T06:25:24.633Z,101351.22
2023-03-01T06:27:53.042Z,101356.38
2023-03-01T06:30:21.805Z,101354.03
2023-03-01T06:32:50.608Z,101356.69
2023-03-01T06:35:18.904Z,101350.75
2023-03-01T06:37:46.797Z,101343.13
2023-03-01T06:40:14.878Z,101352.06
2023-03-01T06:42:43.151Z,101351.41
2023-03-01T06:45:10.216Z,101355.06
2023-03-01T06:47:36.945Z,101346.44
2023-03-01T06:50:04.357Z,101341.16
2023-03-01T06:52:31.640Z,101343.94
2023-03-01T06:54:58.246Z,101340.63
2023-03-01T06:57:25.113Z,101342.59
2023-03-01T06:59:51.792Z,101337.81
2023-03-01T07:02:18.487Z,101351.19
2023-03-01T07:04:45.103Z,101351.53
2023-03-01T07:07:12.056Z,101346.59
2023-03-01T07:09:38.748Z,101346.03
2023-03-01T07:12:05.756Z,101345.66
2023-03-01T07:14:32.472Z,101349.44
2023-03-01T07:16:59.072Z,101342.38
2023-03-01T07:19:25.821Z,101343.31
2023-03-01T07:21:52.446Z,101342.16
2023-03-01T07:24:19.099Z,101335.44
2023-03-01T07:26:50.031Z,101330.41
2023-03-01T07:29:16.988Z,101340.28
2023-03-01T07:31:43.652Z,101326.63
2023-03-01T07:34:11.638Z,101324.06
2023-03-01T07:36:40.439Z,101338.00
2023-03-01T07:39:07.534Z,101325.53
2023-03-01T07:41:34.176Z,101322.97
2023-03-01T07:44:01.160Z,101318.91
2023-03-01T07:46:28.003Z,101312.16
2023-03-01T07:48:54.626Z,101321.88
2023-03-01T07:51:22.272Z,101325.97
2023-03-01T07:53:49.437Z,101326.03
2023-03-01T07:56:19.229Z,101326.91
2023-03-01T07:58:47.159Z,101320.50
2023-03-01T08:01:19.859Z,101311.06
2023-03-01T08:03:46.736Z,101318.16
2023-03-01T08:06:16.310Z,101312.03
2023-03-01T08:08:43.506Z,101311.56
2023-03-01T08:11:15.702Z,101307.63
2023-03-01T08:13:43.479Z,101305.41
2023-03-01T08:16:15.839Z,101298.63
2023-03-01T08:18:43.485Z,101300.94
2023-03-01T08:21:12.797Z,101298.06
2023-03-01T08:23:39.708Z,101298.44
2023-03-01T08:26:09.326Z,101292.13
2023-03-01T08:28:36.855Z,101289.75
2023-03-01T08:31:04.426Z,101285.97
2023-03-01T08:33:31.117Z,101285.97
2023-03-01T08:36:07.792Z,101292.41
2023-03-01T08:38:36.309Z,101289.44
2023-03-01T08:41:04.302Z,101292.09
2023-03-01T08:43:31.347Z,101291.47
2023-03-01T08:45:58.137Z,101280.72
2023-03-01T08:48:24.760Z,101283.47
2023-03-01T08:50:51.998Z,101281.81
2023-03-01T08:53:18.593Z,101286.22
2023-03-01T08:55:45.194Z,101274.81
2023-03-01T08:58:11.870Z,101275.44
2023-03-01T09:00:38.603Z,101263.19
2023-03-01T09:03:05.522Z,101263.16
2023-03-01T09:05:33.982Z,101267.16
2023-03-01T09:08:00.742Z,101265.69
2023-03-01T09:10:27.397Z,101270.75
2023-03-01T09:12:54.057Z,101267.84
2023-03-01T09:15:20.801Z,101258.47
2023-03-01T09:17:47.829Z,101250.72
2023-03-01T09:20:14.699Z,101244.38
2023-03-01T09:22:41.369Z,101256.56
2023-03-01T09:25:08.455Z,101250.28
2023-03-01T09:27:35.062Z,101255.38
2023-03-01T09:30:02.045Z,101247.03
2023-03-01T09:32:32.141Z,101250.41
2023-03-01T09:35:07.474Z,101257.53
2023-03-01T09:37:35.833Z,101256.72
2023-03-01T09:40:08.121Z,101247.22
2023-03-01T09:42:36.841Z,101251.63
2023-03-01T09:45:16.035Z,101259.03
2023-03-01T09:47:43.113Z,101249.78
2023-03-01T09:50:18.457Z,101244.25
2023-03-01T09:52:55.600Z,101239.06
2023-03-01T09:55:47.779Z,101237.22
2023-03-01T09:58:32.738Z,101248.28
2023-03-01T10:01:11.290Z,101236.16
2023-03-01T10:03:46.304Z,101244.34
2023-03-01T10:06:33.905Z,101233.03
2023-03-01T10:09:07.200Z,101231.97
2023-03-01T10:11:39.475Z,101215.13
2023-03-01T10:14:31.342Z,101219.47
2023-03-01T10:17:03.987Z,101224.13
2023-03-01T10:19:43.910Z,101215.06
2023-03-01T10:22:15.918Z,101214.81
2023-03-01T10:24:43.378Z,101213.47
2023-03-01T10:27:22.953Z,101214.72
2023-03-01T10:30:20.443Z,101213.47
2023-03-01T10:32:50.168Z,101213.22
2023-03-01T10:35:23.262Z,101198.06
2023-03-01T10:38:12.767Z,101186.31
2023-03-01T10:40:56.049Z,101187.94
2023-03-01T10:43:23.160Z,101187.13
2023-03-01T10:45:50.027Z,101179.72
2023-03-01T10:48:22.067Z,101181.94
2023-03-01T10:51:06.759Z,101173.94
2023-03-01T10:53:37.382Z,101170.91
2023-03-01T10:56:07.934Z,101176.03
2023-03-01T10:58:37.134Z,101170.31
2023-03-01T11:01:07.344Z,101170.69
2023-03-01T11:03:36.836Z,101162.88
2023-03-01T11:06:12.463Z,101154.03
2023-03-01T11:08:41.855Z,101151.13
2023-03-01T11:11:23.035Z,101153.59
2023-03-01T11:13:57.335Z,101147.63
2023-03-01T11:16:31.915Z,101140.59
2023-03-01T11:19:20.727Z,101134.22
2023-03-01T11:21:53.292Z,101136.00
2023-03-01T11:24:21.006Z,101133.72
2023-03-01T11:26:54.042Z,101129.78
2023-03-01T11:29:26.553Z,101114.94
2023-03-01T11:31:58.077Z,101110.84
2023-03-01T11:34:35.721Z,101104.56
2023-03-01T11:37:10.482Z,101102.13
2023-03-01T11:40:13.025Z,101108.91
2023-03-01T11:43:07.466Z,101103.97
2023-03-01T11:45:58.418Z,101094.84
2023-03-01T11:48:49.711Z,101092.25
2023-03-01T11:51:43.298Z,101080.69
2023-03-01T11:54:26.823Z,101091.63
2023-03-01T11:57:01.225Z,101074.72
2023-03-01T11:59:48.742Z,101078.03
2023-03-01T12:02:15.286Z,101073.72
2023-03-01T12:05:17.278Z,101065.88
2023-03-01T12:08:09.078Z,101062.53
2023-03-01T12:11:09.101Z,101064.41
2023-03-01T12:13:41.564Z,101057.44
2023-03-01T12:16:38.353Z,101051.84
2023-03-01T12:19:26.494Z,101036.66
2023-03-01T12:22:17.305Z,101033.38
2023-03-01T12:24:58.348Z,101027.19
2023-03-01T12:27:32.113Z,101015.88
2023-03-01T12:30:26.152Z,101025.94
2023-03-01T12:33:09.200Z,101018.34
2023-03-01T12:35:41.994Z,101022.22
2023-03-01T12:38:23.529Z,101004.94
2023-03-01T12:41:12.143Z,101009.47
2023-03-01T12:44:02.121Z,100993.44
2023-03-01T12:46:44.106Z,100996.28
2023-03-01T12:49:37.027Z,100995.63
2023-03-01T12:52:25.215Z,100979.59
2023-03-01T12:54:58.166Z,100980.81
2023-03-01T12:57:44.541Z,100960.25
2023-03-01T13:00:34.500Z,100948.50
2023-03-01T13:03:13.598Z,100957.78
2023-03-01T13:05:58.982Z,100952.44
2023-03-01T13:08:51.066Z,100958.63
2023-03-01T13:11:22.884Z,100951.88
2023-03-01T13:13:52.418Z,100954.75
2023-03-01T13:16:30.793Z,100946.47
2023-03-01T13:19:27.016Z,100951.59
2023-03-01T13:21:55.614Z,100949.97
2023-03-01T13:24:28.776Z,100952.41
2023-03-01T13:27:07.460Z,100947.06
2023-03-01T13:29:48.855Z,100935.56
2023-03-01T13:32:48.471Z,100938.81
2023-03-01T13:35:15.494Z,100923.13
2023-03-01T13:37:42.619Z,100933.88
2023-03-01T13:40:21.753Z,100927.69
2023-03-01T13:43:04.814Z,100930.53
2023-03-01T13:45:43.995Z,100918.94
2023-03-01T13:48:23.639Z,100919.69
2023-03-01T13:50:55.383Z,100913.13
2023-03-01T13:53:27.374Z,100914.34
2023-03-01T13:56:02.242Z,100912.41
2023-03-01T13:58:32.344Z,100910.72
2023-03-01T14:01:03.698Z,100903.84
2023-03-01T14:03:33.218Z,100897.66
2023-03-01T14:06:14.927Z,100895.44
2023-03-01T14:08:42.970Z,100900.81
2023-03-01T14:11:21.836Z,100891.06
2023-03-01T14:14:15.975Z,100899.31
2023-03-01T14:17:02.371Z,100895.81
2023-03-01T14:19:33.831Z,100893.91
2023-03-01T14:22:23.464Z,100884.25
2023-03-01T14:24:58.604Z,100891.13
2023-03-01T14:27:36.985Z,100886.38
2023-03-01T14:30:13.500Z,100884.50
2023-03-01T14:32:40.313Z,100874.22
2023-03-01T14:35:31.523Z,100876.44
2023-03-01T14:37:58.710Z,100879.50
2023-03-01T14:40:34.652Z,100868.41
2023-03-01T14:43:09.536Z,100864.44
2023-03-01T14:45:36.378Z,100863.41
2023-03-01T14:48:06.745Z,100865.72
2023-03-01T14:50:36.184Z,100857.94
2023-03-01T14:53:06.709Z,100873.81
2023-03-01T14:55:37.857Z,100874.97
2023-03-01T14:58:06.735Z,100871.53
2023-03-01T15:00:35.910Z,100870.84
2023-03-01T15:03:16.157Z,100866.03
2023-03-01T15:05:44.023Z,100862.78
2023-03-01T15:08:20.416Z,100872.47
2023-03-01T15:11:18.003Z,100868.84
2023-03-01T15:13:47.353Z,100874.09
2023-03-01T15:16:17.784Z,100876.03
2023-03-01T15:19:19.079Z,100878.25
2023-03-01T15:21:49.568Z,100880.75
2023-03-01T15:24:23.772Z,100879.81
2023-03-01T15:26:58.349Z,100888.78
2023-03-01T15:29:30.852Z,100890.03
2023-03-01T15:32:07.010Z,100891.16
2023-03-01T15:34:40.067Z,100891.44
2023-03-01T15:37:28.400Z,100894.72
2023-03-01T15:39:56.728Z,100896.28
2023-03-01T15:42:26.455Z,100899.13
2023-03-01T15:45:12.397Z,100900.63
2023-03-01T15:47:41.635Z,100907.72
2023-03-01T15:50:21.787Z,100914.97
2023-03-01T15:52:48.722Z,100910.69
2023-03-01T15:55:30.378Z,100906.59
2023-03-01T15:58:21.391Z,100907.44
2023-03-01T16:01:00.171Z,100912.56
2023-03-01T16:03:27.436Z,100913.66
2023-03-01T16:05:54.609Z,100905.34
2023-03-01T16:08:21.413Z,100906.78
2023-03-01T16:10:50.816Z,100903.72
2023-03-01T16:13:18.605Z,100903.25
2023-03-01T16:15:45.319Z,100913.66
2023-03-01T16:18:12.766Z,100913.41
2023-03-01T16:20:40.145Z,100906.19
2023-03-01T16:23:11.109Z,100907.75
2023-03-01T16:25:38.769Z,100909.56
2023-03-01T16:28:09.909Z,100905.00
2023-03-01T16:30:38.809Z,100906.72
2023-03-01T16:33:19.231Z,100902.56
2023-03-01T16:35:54.068Z,100898.91
2023-03-01T16:38:20.704Z,100893.47
2023-03-01T16:40:49.909Z,100890.66
2023-03-01T16:43:16.879Z,100899.38
2023-03-01T16:45:45.674Z,100902.16
2023-03-01T16:48:12.524Z,100902.25
2023-03-01T16:50:39.922Z,100906.78
2023-03-01T16:53:07.194Z,100909.41
2023-03-01T16:55:34.332Z,100901.84
2023-03-01T16:58:01.682Z,100908.47
2023-03-01T17:00:29.118Z,100900.94
2023-03-01T17:02:55.903Z,100900.09
2023-03-01T17:05:24.695Z,100904.06
2023-03-01T17:07:51.912Z,100907.19
2023-03-01T17:10:18.692Z,100897.66
2023-03-01T17:12:45.340Z,100901.59
2023-03-01T17:15:13.016Z,100890.91
2023-03-01T17:17:41.099Z,100894.84
2023-03-01T17:20:08.530Z,100900.41
2023-03-01T17:22:35.289Z,100897.13
2023-03-01T17:25:02.024Z,100904.56
2023-03-01T17:27:29.581Z,100899.81
2023-03-01T17:29:56.228Z,100894.06
2023-03-01T17:32:23.121Z,100891.63
2023-03-01T17:34:49.792Z,100889.94
2023-03-01T17:37:16.598Z,100898.84
2023-03-01T17:39:43.280Z,100890.66
2023-03-01T17:42:10.096Z,100887.75
2023-03-01T17:44:41.069Z,100887.34
2023-03-01T17:47:10.276Z,100891.00
2023-03-01T17:49:37.488Z,100890.47
2023-03-01T17:52:04.408Z,100890.69
2023-03-01T17:54:33.312Z,100893.34
2023-03-01T17:57:00.571Z,100894.59
2023-03-01T17:59:33.604Z,100895.84
2023-03-01T18:02:01.753Z,100895.25
2023-03-01T18:04:29.503Z,100895.03
2023-03-01T18:06:56.371Z,100902.25
2023-03-01T18:09:23.114Z,100908.84
2023-03-01T18:11:49.711Z,100913.00
2023-03-01T18:14:16.935Z,100904.78
2023-03-01T18:16:44.008Z,100912.38
2023-03-01T18:19:11.584Z,100928.06
2023-03-01T18:21:38.273Z,100922.91
2023-03-01T18:24:05.570Z,100908.09
2023-03-01T18:26:32.635Z,100923.94
2023-03-01T18:29:01.265Z,100922.75
2023-03-01T18:31:32.533Z,100922.31
2023-03-01T18:34:02.974Z,100925.59
2023-03-01T18:36:33.754Z,100927.44
2023-03-01T18:39:07.198Z,100922.94
2023-03-01T18:41:35.432Z,100925.00
2023-03-01T18:44:04.225Z,100924.59
2023-03-01T18:46:31.743Z,100924.19
2023-03-01T18:48:59.406Z,100924.81
2023-03-01T18:51:28.172Z,100922.94
2023-03-01T18:53:56.296Z,100930.56
2023-03-01T18:56:23.105Z,100938.56
2023-03-01T18:58:50.045Z,100934.47
2023-03-01T19:01:19.864Z,100937.53
2023-03-01T19:03:47.229Z,100930.34
2023-03-01T19:06:14.257Z,100934.03
2023-03-01T19:08:42.370Z,100927.88
2023-03-01T19:11:09.592Z,100925.84
2023-03-01T19:13:38.448Z,100924.00
2023-03-01T19:16:09.296Z,100922.75
2023-03-01T19:18:39.943Z,100925.22
2023-03-01T19:21:09.001Z,100922.16
2023-03-01T19:23:36.340Z,100925.81
2023-03-01T19:26:06.551Z,100918.22
2023-03-01T19:28:38.266Z,100916.78
2023-03-01T19:31:13.045Z,100918.84
2023-03-01T19:33:40.799Z,100924.38
2023-03-01T19:36:09.280Z,100920.47
2023-03-01T19:38:37.432Z,100921.50
2023-03-01T19:41:16.851Z,100914.13
2023-03-01T19:43:45.400Z,100912.66
2023-03-01T19:46:15.258Z,100910.59
2023-03-01T19:48:44.384Z,100921.91
2023-03-01T19:51:11.826Z,100915.50
2023-03-01T19:53:40.240Z,100917.97
2023-03-01T19:56:10.949Z,100914.69
2023-03-01T19:58:38.391Z,100911.59
2023-03-01T20:01:20.363Z,100912.84
2023-03-01T20:03:48.002Z,100918.97
2023-03-01T20:06:22.675Z,100908.72
2023-03-01T20:08:49.462Z,100912.00
2023-03-01T20:11:17.438Z,100914.47
2023-03-01T20:13:44.622Z,100922.47
2023-03-01T20:16:15.535Z,100926.56
2023-03-01T20:18:43.408Z,100915.44
2023-03-01T20:21:21.652Z,100916.66
2023-03-01T20:23:50.440Z,100919.97
2023-03-01T20:26:19.647Z,100925.53
2023-03-01T20:28:49.233Z,100925.47
2023-03-01T20:31:18.557Z,100929.56
2023-03-01T20:33:45.855Z,100932.44
2023-03-01T20:36:12.957Z,100919.53
2023-03-01T20:38:40.104Z,100924.81
2023-03-01T20:41:09.798Z,100918.44
2023-03-01T20:43:37.467Z,100917.47
2023-03-01T20:46:06.451Z,100922.16
2023-03-01T20:48:33.930Z,100919.44
2023-03-01T20:51:05.430Z,100913.72
2023-03-01T20:53:32.237Z,100914.69
2023-03-01T20:56:07.034Z,100915.28
2023-03-01T20:58:35.448Z,100910.19
2023-03-01T21:01:04.406Z,100905.41
2023-03-01T21:03:31.669Z,100901.91
2023-03-01T21:05:59.870Z,100910.91
2023-03-01T21:08:26.656Z,100914.06
2023-03-01T21:10:54.981Z,100909.56
2023-03-01T21:13:26.159Z,100910.78
2023-03-01T21:16:14.060Z,100905.19
2023-03-01T21:18:41.958Z,100902.53
2023-03-01T21:21:14.663Z,100907.84
2023-03-01T21:23:43.120Z,100915.75
2023-03-01T21:26:27.562Z,100906.16
2023-03-01T21:29:01.277Z,100903.84
2023-03-01T21:31:32.161Z,100898.69
2023-03-01T21:34:01.223Z,100894.81
2023-03-01T21:36:29.149Z,100897.06
2023-03-01T21:38:56.011Z,100899.53
2023-03-01T21:41:25.663Z,100897.25
2023-03-01T21:43:56.799Z,100889.00
2023-03-01T21:46:25.372Z,100890.25
2023-03-01T21:48:54.440Z,100890.84
2023-03-01T21:51:25.232Z,100900.28
2023-03-01T21:53:52.243Z,100890.44
2023-03-01T21:56:22.020Z,100889.22
2023-03-01T21:58:49.790Z,100883.84
2023-03-01T22:01:21.344Z,100879.75
2023-03-01T22:03:48.073Z,100873.19
2023-03-01T22:06:19.526Z,100871.50
2023-03-01T22:08:49.451Z,100867.84
2023-03-01T22:11:19.885Z,100860.50
2023-03-01T22:13:49.501Z,100876.06
2023-03-01T22:16:16.811Z,100872.94
2023-03-01T22:18:43.491Z,100868.63
2023-03-01T22:21:11.065Z,100872.16
2023-03-01T22:23:39.422Z,100878.94
2023-03-01T22:26:06.793Z,100867.69
2023-03-01T22:28:33.835Z,100879.75
2023-03-01T22:31:05.608Z,100876.72
2023-03-01T22:33:32.877Z,100866.50
2023-03-01T22:35:59.593Z,100874.50
2023-03-01T22:38:26.379Z,100879.69
2023-03-01T22:41:01.042Z,100873.47
2023-03-01T22:43:29.318Z,100867.91
2023-03-01T22:45:56.309Z,100871.59
2023-03-01T22:48:23.973Z,100867.72
2023-03-01T22:50:51.781Z,100873.00
2023-03-01T22:53:18.822Z,100875.16
2023-03-01T22:55:45.453Z,100880.84
2023-03-01T22:58:12.199Z,100874.31
2023-03-01T23:00:38.915Z,100874.56
2023-03-01T23:03:05.677Z,100871.69
2023-03-01T23:05:32.480Z,100868.97
2023-03-01T23:07:59.192Z,100871.41
2023-03-01T23:10:25.972Z,100874.34
2023-03-01T23:12:56.164Z,100880.75
2023-03-01T23:15:23.505Z,100876.81
2023-03-01T23:17:50.259Z,100873.34
2023-03-01T23:20:17.629Z,100871.88
2023-03-01T23:22:44.437Z,100872.06
2023-03-01T23:25:14.876Z,100871.06
2023-03-01T23:27:41.764Z,100871.97
2023-03-01T23:30:09.627Z,100878.16
2023-03-01T23:32:40.710Z,100864.59
2023-03-01T23:35:09.685Z,100868.78
2023-03-01T23:37:37.292Z,100873.72
2023-03-01T23:40:08.790Z,100858.66
2023-03-01T23:42:35.531Z,100864.38
2023-03-01T23:45:02.545Z,100859.66
2023-03-01T23:47:30.391Z,100860.44
2023-03-01T23:49:57.417Z,100867.50
2023-03-01T23:52:24.366Z,100860.88
2023-03-01T23:54:51.861Z,100874.50
2023-03-01T23:57:19.227Z,100864.72
2023-03-01T23:59:45.919Z,100854.22
